메인 페이지
METAR-TAF:

METAR-TAF

공항 :

멜버른, 오스트레일리아

멜버른 공항

위도: 37-40-24S, 경도: 144-50-36E, 고도: 132m

현재 날씨관측

예보는 25분 전, 07:00시(UTC)에 발표되었습니다.
19kt
온도 18°C
습도 52%
기압 1012 hPa
시정 10km 이상
고도 3400ft 상공 구름 조금
고도 3900ft 상공 구름 보통

METAR: YMML 250700Z 18019KT 9999 FEW034 SCT039 18/08 Q1012

시각: 18:25 (07:25 UTC)

예보

예보는 2 시간 0분 전, 05:25시(UTC)에 발표되었습니다.
예보 대상 시간: 25일 06시부터 26일 12시까지 (UTC)
19kt, 순간 최대 풍속 29kt
시정 10km 이상
고도 3500ft 상공 구름 많음
25일 1000시부터 (UTC)
남남동12kt
시정 10km 이상
고도 3500ft 상공 구름 보통
25일 2200시부터 (UTC)
남남동8kt
시정 10km 이상
1500m 미만 상공 구름 및 적란운 없음

TAF: YMML 250525Z 2506/2612 18019G29KT 9999 BKN035 FM251000 15012KT 9999 SCT035 FM252200 15008KT CAVOK

4,000개 이상의 공항 관측 자료 및 예보 (METAR 및 TAF 보고).

지도상에서 검색 가능한 기상관측소가 노란 점과 빨간 점으로 표시되어 있습니다.

기상관측소 명을 보려면 표시 위로 마우스를 이동하세요.

날씨 관측과 예보를 보려면 클릭하세요.

지도 변경 : 확대하려면 엑스 표시가 있는 녹색 버튼, 축소하려면 빼기 표시가 있는 녹색 버튼, 다음 페이지의 지도를 보려면 녹색 화살표를 클릭하세요.


METAR-TAF: